Latest Coastal Weather Observations for Cape Byron

IDN60701

Issued at 3:15 pm EST Wednesday 3 September 2014 (issued every 10 minutes, with the page automatically refreshed every 10 minutes)

About coastal observations | Map of coastal stations | Coastal observations for NSW | Marine services | Other Formats
Station Details ID: 058216 Name: CAPE BYRON AWS Lat: -28.64 Lon: 153.64 Height: 95.0 m
Data from the previous 72 hours. | See also: Recent months at Cape Byron
Date/Time
EST
Temp

°C
Wind Pressure Rain
since 9am
mm
Weather Cloud Vis
km
Sea
Height
m
Swell
Dir
 
Speed
knots
Gust
knots
hPa Trend Height
m
Period
s
Dir
03/03:02pm 20.5 SW 17 27 1007.7 - 0.0 - - - - - - -
03/03:00pm 20.6 SW 15 23 1007.8 - 0.0 - - - - - - -
03/02:50pm 20.3 SW 17 27 1007.8 - 0.0 - - - - - - -
03/02:30pm 20.2 SW 21 29 1007.6 - 0.0 - - - - - - -
03/02:00pm 20.2 SW 19 29 1007.7 - 0.0 - - - - - - -
03/01:30pm 20.1 SW 16 26 1007.6 - 0.0 - - - - - - -
03/01:12pm 19.6 WSW 18 28 1007.9 - 0.0 - - - - - - -
03/01:00pm 19.3 WSW 17 25 1007.9 - 0.0 - - - - - - -
03/12:30pm 19.1 WSW 19 29 1008.0 - 0.0 - - - - - - -
03/12:00pm 18.8 WSW 17 27 1008.3 - 0.0 - - - - - - -
03/11:42am 18.3 WSW 18 28 1008.8 - 0.0 - - - - - - -
03/11:30am 18.0 SW 18 26 1008.9 - 0.0 - - - - - - -
03/11:00am 17.3 WSW 20 34 1009.3 - 0.0 - - - - - - -
03/10:43am 17.0 WSW 18 30 1009.4 - 0.0 - - - - - - -
03/10:30am 16.9 W 16 23 1009.5 - 0.0 - - - - - - -
03/10:00am 16.2 W 19 27 1009.5 - 0.0 - - - - - - -
03/09:32am 15.6 WSW 17 27 1009.5 - 0.0 - - - - - - -
03/09:30am 15.6 WSW 17 24 1009.6 - 0.0 - - - - - - -
03/09:08am 15.2 W 15 25 1009.8 - 0.0 - - - - - - -
03/09:00am 14.9 W 17 25 1009.7 - 0.0 - - - - - - -
03/08:33am 14.4 W 15 26 1009.7 - 0.0 - - - - - - -
03/08:30am 14.3 W 14 26 1009.8 - 0.0 - - - - - - -
03/08:00am 13.6 W 16 26 1009.6 - 0.0 - - - - - - -
03/07:30am 12.8 W 18 29 1009.3 - 0.0 - - - - - - -
03/07:00am 12.5 W 18 29 1008.9 - 0.0 - - - - - - -
03/06:30am 12.2 W 15 25 1009.3 - 0.0 - - - - - - -
03/06:00am 12.3 W 16 28 1008.4 - 0.0 - - - - - - -
03/05:45am 12.2 W 15 25 1009.2 - 0.0 - - - - - - -
03/05:30am 12.2 W 14 21 1009.1 - 0.0 - - - - - - -
03/05:00am 12.1 WNW 12 20 1008.6 - 0.0 - - - - - - -
03/04:30am 12.1 WNW 11 18 1009.0 - 0.0 - - - - - - -
03/04:00am 12.4 WNW 11 17 1008.6 - 0.0 - - - - - - -
03/03:30am 12.2 WNW 10 16 1009.3 - 0.0 - - - - - - -
03/03:00am 12.4 WNW 9 15 1009.4 - 0.0 - - - - - - -
03/02:30am 13.0 W 12 17 1010.0 - 0.0 - - - - - - -
03/02:00am 13.4 W 15 21 1010.0 - 0.0 - - - - - - -
03/01:30am 13.8 W 16 21 1010.5 - 0.0 - - - - - - -
03/01:00am 14.2 W 16 26 1010.3 - 0.0 - - - - - - -
03/12:56am 14.3 W 16 26 1010.6 - 0.0 - - - - - - -
03/12:30am 14.4 W 13 21 1011.0 - 0.0 - - - - - - -
03/12:00am 14.6 W 10 15 1011.0 - 0.0 - - - - - - -
 
Date/Time
EST
Temp

°C
Wind Pressure Rain
since 9am
mm
Weather Cloud Vis
km
Sea
Height
m
Swell
Dir
 
Speed
knots
Gust
knots
hPa Trend Height
m
Period
s
Dir
02/11:30pm 14.8 W 11 21 1011.4 - 0.0 - - - - - - -
02/11:00pm 15.5 W 13 18 1011.0 - 0.0 - - - - - - -
02/10:30pm 15.7 W 15 27 1011.1 - 0.0 - - - - - - -
02/10:22pm 15.9 W 15 27 1011.0 - 0.0 - - - - - - -
02/10:00pm 15.8 W 14 21 1010.7 - 0.0 - - - - - - -
02/09:30pm 16.4 W 15 25 1011.1 - 0.0 - - - - - - -
02/09:00pm 16.9 W 18 29 1010.5 - 0.0 - - - - - - -
02/08:30pm 17.4 W 17 26 1010.5 - 0.0 - - - - - - -
02/08:05pm 18.1 W 19 29 1010.3 - 0.0 - - - - - - -
02/08:00pm 18.0 W 17 24 1010.0 - 0.0 - - - - - - -
02/07:48pm 18.3 W 17 27 1010.1 - 0.0 - - - - - - -
02/07:30pm 18.7 W 15 22 1009.9 - 0.0 - - - - - - -
02/07:00pm 18.9 WNW 13 19 1009.3 - 0.0 - - - - - - -
02/06:30pm 19.2 WNW 13 21 1008.9 - 0.0 - - - - - - -
02/06:00pm 20.3 W 15 24 1008.0 - 0.0 - - - - - - -
02/05:30pm 20.2 NW 10 16 1007.8 - 0.0 - - - - - - -
02/05:00pm 21.7 NW 7 15 1007.0 - 0.0 - - - - - - -
02/04:30pm 21.3 NNW 6 12 1006.6 - 0.0 - - - - - - -
02/04:00pm 21.0 N 13 20 1005.9 - 0.0 - - - - - - -
02/03:30pm 19.6 N 15 24 1006.0 - 0.0 - - - - - - -
02/03:20pm 20.0 N 15 25 1005.9 - 0.0 - - - - - - -
02/03:00pm 20.4 N 17 24 1005.5 - 0.0 - - - - - - -
02/02:30pm 20.7 N 18 27 1005.6 - 0.0 - - - - - - -
02/02:00pm 20.8 N 17 25 1005.9 - 0.0 - - - - - - -
02/01:30pm 20.5 N 17 23 1006.6 - 0.0 - - - - - - -
02/01:00pm 20.2 N 16 23 1007.2 - 0.0 - - - - - - -
02/12:30pm 19.9 N 17 22 1007.8 - 0.0 - - - - - - -
02/12:00pm 20.5 NNE 15 21 1008.1 - 0.0 - - - - - - -
02/11:30am 21.1 N 13 18 1009.3 - 0.0 - - - - - - -
02/11:00am 19.8 N 12 17 1009.7 - 0.0 - - - - - - -
02/10:30am 19.0 N 13 18 1010.6 - 0.0 - - - - - - -
02/10:00am 18.5 N 13 18 1010.9 - 0.0 - - - - - - -
02/09:30am 17.9 N 14 19 1011.6 - 0.0 - - - - - - -
02/09:00am 17.8 N 11 16 1011.8 - 0.0 - - - - - - -
02/08:30am 18.0 N 9 17 1012.3 - 0.0 - - - - - - -
02/08:00am 17.8 N 10 17 1012.2 - 0.0 - - - - - - -
02/07:30am 17.6 N 11 17 1012.5 - 0.0 - - - - - - -
02/07:00am 17.1 NW 7 14 1012.4 - 0.0 - - - - - - -
02/06:30am 17.1 NNW 7 13 1012.6 - 0.0 - - - - - - -
02/06:00am 17.3 N 11 17 1012.3 - 0.0 - - - - - - -
02/05:30am 17.5 N 12 16 1012.5 - 0.0 - - - - - - -
02/05:00am 17.3 N 11 16 1012.4 - 0.0 - - - - - - -
02/04:30am 17.3 N 14 20 1012.5 - 0.0 - - - - - - -
02/04:00am 17.4 N 12 17 1012.6 - 0.0 - - - - - - -
02/03:30am 17.0 N 10 17 1012.8 - 0.0 - - - - - - -
02/03:00am 17.2 N 8 14 1012.8 - 0.0 - - - - - - -
02/02:30am 17.6 N 9 15 1013.4 - 0.0 - - - - - - -
02/02:00am 17.9 N 11 16 1013.4 - 0.0 - - - - - - -
02/01:30am 17.9 N 11 18 1014.1 - 0.0 - - - - - - -
02/01:00am 18.0 N 10 15 1014.4 - 0.0 - - - - - - -
02/12:30am 18.0 NNW 8 12 1015.0 - 0.0 - - - - - - -
02/12:00am 18.0 NNW 7 13 1015.0 - 0.0 - - - - - - -
 
Date/Time
EST
Temp

°C
Wind Pressure Rain
since 9am
mm
Weather Cloud Vis
km
Sea
Height
m
Swell
Dir
 
Speed
knots
Gust
knots
hPa Trend Height
m
Period
s
Dir
01/11:30pm 18.2 N 8 14 1015.3 - 0.0 - - - - - - -
01/11:00pm 18.3 NNW 8 14 1015.2 - 0.0 - - - - - - -
01/10:30pm 18.3 NNW 9 13 1015.6 - 0.0 - - - - - - -
01/10:00pm 18.5 NNW 10 16 1015.3 - 0.0 - - - - - - -
01/09:30pm 18.5 NNW 10 15 1015.8 - 0.0 - - - - - - -
01/09:00pm 18.8 N 12 18 1015.8 - 0.0 - - - - - - -
01/08:30pm 18.8 N 9 13 1016.1 - 0.0 - - - - - - -
01/08:00pm 19.0 N 9 14 1015.9 - 0.0 - - - - - - -
01/07:30pm 19.0 N 11 16 1015.8 - 0.0 - - - - - - -
01/07:00pm 19.2 N 12 16 1015.5 - 0.0 - - - - - - -
01/06:30pm 19.1 N 13 17 1015.5 - 0.0 - - - - - - -
01/06:00pm 19.3 N 13 18 1015.0 - 0.0 - - - - - - -
01/05:30pm 19.3 N 13 17 1015.2 - 0.0 - - - - - - -
01/05:00pm 19.6 NNE 12 19 1015.1 - 0.0 - - - - - - -
01/04:30pm 19.9 NNE 12 17 1014.9 - 0.0 - - - - - - -
01/04:00pm 20.1 NNE 11 16 1014.5 - 0.0 - - - - - - -
01/03:30pm 20.4 NNE 11 19 1014.9 - 0.0 - - - - - - -
01/03:00pm 21.0 NE 14 19 1014.7 - 0.0 - - - - - - -
01/02:30pm 21.2 NE 13 16 1015.4 - 0.0 - - - - - - -
01/02:00pm 21.0 NNE 11 15 1015.3 - 0.0 - - - - - - -
01/01:30pm 20.8 NE 11 15 1016.1 - 0.0 - - - - - - -
01/01:00pm 21.2 NE 13 16 1016.2 - 0.0 - - - - - - -
01/12:30pm 21.5 NE 15 17 1016.8 - 0.0 - - - - - - -
01/12:00pm 21.4 NE 14 16 1017.3 - 0.0 - - - - - - -
01/11:30am 21.7 NE 12 14 1018.1 - 0.0 - - - - - - -
01/11:00am 21.6 NE 10 11 1018.5 - 0.0 - - - - - - -
01/10:30am 21.1 NNE 6 9 1019.3 - 0.0 - - - - - - -
01/10:00am 20.7 NE 6 7 1019.1 - 0.0 - - - - - - -
01/09:30am 20.3 NNE 3 5 1019.6 - 0.0 - - - - - - -
01/09:00am 19.2 N 4 6 1019.6 - 0.0 - - - - - - -
01/08:30am 19.3 N 3 4 1019.7 - 0.0 - - - - - - -
01/08:00am 17.8 NNW 4 4 1019.4 - 0.0 - - - - - - -
01/07:30am 17.7 CALM 0 0 1019.4 - 0.0 - - - - - - -
01/07:00am 17.1 W 5 5 1019.1 - 0.0 - - - - - - -
01/06:30am 16.6 W 7 8 1019.0 - 0.0 - - - - - - -
01/06:00am 16.0 W 8 10 1018.6 - 0.0 - - - - - - -
01/05:30am 16.3 W 7 9 1018.4 - 0.0 - - - - - - -
01/05:00am 16.2 W 8 9 1018.0 - 0.0 - - - - - - -
01/04:30am 16.4 WSW 8 11 1018.1 - 0.0 - - - - - - -
01/04:00am 16.4 WSW 9 11 1017.9 - 0.0 - - - - - - -
01/03:30am 16.5 WSW 9 10 1018.1 - 0.0 - - - - - - -
01/03:00am 16.4 WSW 9 11 1017.9 - 0.0 - - - - - - -
01/02:30am 16.6 WSW 8 10 1018.2 - 0.0 - - - - - - -
01/02:00am 16.5 WSW 8 10 1018.1 - 0.0 - - - - - - -
01/01:30am 16.4 W 9 11 1018.5 - 0.0 - - - - - - -
01/01:00am 15.9 W 9 11 1018.5 - 0.0 - - - - - - -
01/12:30am 16.3 W 9 11 1018.8 - 0.0 - - - - - - -
01/12:00am 16.2 W 8 11 1018.6 - 0.0 - - - - - - -
 
Date/Time
EST
Temp

°C
Wind Pressure Rain
since 9am
mm
Weather Cloud Vis
km
Sea
Height
m
Swell
Dir
 
Speed
knots
Gust
knots
hPa Trend Height
m
Period
s
Dir
31/11:30pm 16.1 WSW 7 9 1018.9 - 0.0 - - - - - - -
31/11:00pm 16.2 SW 7 8 1018.8 - 0.0 - - - - - - -
31/10:30pm 16.3 SW 7 7 1019.0 - 0.0 - - - - - - -
31/10:00pm 16.5 SSW 5 6 1018.7 - 0.0 - - - - - - -
31/09:30pm 16.8 SSW 4 7 1019.0 - 0.0 - - - - - - -
31/09:00pm 17.7 S 7 9 1018.8 - 0.0 - - - - - - -
31/08:30pm 17.7 SSE 8 11 1018.9 - 0.0 - - - - - - -
31/08:00pm 17.6 S 9 11 1018.6 - 0.0 - - - - - - -
31/07:30pm 17.6 SSE 10 14 1018.8 - 0.0 - - - - - - -
31/07:00pm 17.7 SSE 12 16 1018.1 - 0.0 - - - - - - -
31/06:30pm 17.7 SSE 13 17 1017.9 - 0.0 - - - - - - -
31/06:00pm 17.7 SSE 13 17 1017.4 - 0.0 - - - - - - -
31/05:30pm 17.7 SSE 15 19 1017.2 - 0.0 - - - - - - -
31/05:00pm 18.0 S 14 17 1016.9 - 0.0 - - - - - - -
31/04:30pm 18.0 S 15 19 1017.1 - 0.0 - - - - - - -
31/04:00pm 18.3 S 15 20 1016.7 - 0.0 - - - - - - -
31/03:30pm 18.6 S 17 20 1016.9 - 0.0 - - - - - - -

Other Formats:

Comma delimited format used in spreadsheet applications
http://www.bom.gov.au/fwo/IDN60701/IDN60701.94599.axf

JavaScript Object Notation format (JSON) in row-major order
http://www.bom.gov.au/fwo/IDN60701/IDN60701.94599.json